createdAt,value
2018-11-22T00:30:00.284Z,45.73
2018-11-22T00:38:12.320Z,44.60
2018-11-22T00:44:04.495Z,46.67
2018-11-22T00:49:44.926Z,47.47
2018-11-22T00:52:32.479Z,53.30
2018-11-22T01:07:33.245Z,45.43
2018-11-22T01:13:03.425Z,47.40
2018-11-22T01:15:43.442Z,43.33
2018-11-22T01:18:23.362Z,45.00
2018-11-22T01:21:01.463Z,50.23
2018-11-22T01:48:33.076Z,40.67
2018-11-22T01:51:01.274Z,48.00
2018-11-22T01:53:48.851Z,46.73
2018-11-22T01:56:36.424Z,48.60
2018-11-22T02:11:22.446Z,45.43
2018-11-22T02:14:10.731Z,41.63
2018-11-22T02:16:39.251Z,43.97
2018-11-22T02:19:26.777Z,44.43
2018-11-22T02:22:20.292Z,41.23
2018-11-22T02:34:17.501Z,40.47
2018-11-22T02:49:34.462Z,42.57
2018-11-22T02:52:02.651Z,39.70
2018-11-22T02:54:30.861Z,43.53
2018-11-22T03:00:18.876Z,37.23
2018-11-22T03:06:02.122Z,42.83
2018-11-22T03:12:07.510Z,39.87
2018-11-22T03:17:47.072Z,40.30
2018-11-22T03:20:27.166Z,41.07
2018-11-22T03:23:07.089Z,37.33
2018-11-22T03:25:46.923Z,42.47
2018-11-22T03:28:15.239Z,39.63
2018-11-22T03:31:02.784Z,42.00
2018-11-22T03:45:27.239Z,57.73
2018-11-22T03:48:14.741Z,55.13
2018-11-22T03:50:43.133Z,56.63
2018-11-22T03:53:30.630Z,59.17
2018-11-22T04:02:21.541Z,53.30
2018-11-22T04:08:26.538Z,61.27
2018-11-22T04:11:22.782Z,54.33
2018-11-22T04:14:02.776Z,59.10
2018-11-22T04:16:43.074Z,57.37
2018-11-22T04:19:23.252Z,61.30
2018-11-22T04:22:03.347Z,55.27
2018-11-22T04:24:31.570Z,54.50
2018-11-22T04:27:19.244Z,61.17
2018-11-22T04:29:47.442Z,57.03
2018-11-22T04:32:35.008Z,60.90
2018-11-22T04:35:03.291Z,52.30
2018-11-22T04:37:50.993Z,57.10
2018-11-22T04:40:44.465Z,54.60
2018-11-22T04:49:16.926Z,52.77
2018-11-22T04:52:04.473Z,52.47
2018-11-22T04:54:52.033Z,54.67
2018-11-22T05:06:23.197Z,56.30
2018-11-22T05:09:11.056Z,52.93
2018-11-22T05:11:39.139Z,61.73
2018-11-22T05:14:26.651Z,57.70
2018-11-22T05:53:53.852Z,60.83
2018-11-22T06:12:04.278Z,63.07
2018-11-22T06:14:32.696Z,62.43
2018-11-22T06:20:20.991Z,66.23
2018-11-22T06:23:08.607Z,61.03
2018-11-22T06:28:46.493Z,59.23
2018-11-22T06:31:34.074Z,56.63
2018-11-22T07:07:52.480Z,60.50
2018-11-22T07:10:21.323Z,58.23
2018-11-22T07:13:09.034Z,60.10
2018-11-22T07:28:11.671Z,58.93
2018-11-22T07:36:54.124Z,60.60
2018-11-22T07:39:22.066Z,65.57
2018-11-22T07:42:10.022Z,60.10
2018-11-22T07:44:59.227Z,61.20
2018-11-22T08:18:06.153Z,60.87
2018-11-22T08:27:00.888Z,56.87
2018-11-22T08:32:30.784Z,55.40
2018-11-22T08:35:18.725Z,60.00
2018-11-22T08:44:04.995Z,61.47
2018-11-22T08:46:52.707Z,58.50
2018-11-22T08:49:45.147Z,58.10
2018-11-22T08:52:26.026Z,57.73
2018-11-22T08:55:06.254Z,67.47
2018-11-22T09:00:32.932Z,58.67
2018-11-22T09:03:11.027Z,54.43
2018-11-22T09:05:39.201Z,57.23
2018-11-22T09:11:26.708Z,60.53
2018-11-22T09:14:14.257Z,54.73
2018-11-22T09:19:41.309Z,52.40
2018-11-22T09:22:46.450Z,53.63
2018-11-22T09:28:13.037Z,61.13
2018-11-22T09:31:01.481Z,57.80
2018-11-22T09:37:09.599Z,54.07
2018-11-22T09:46:00.758Z,57.57
2018-11-22T09:57:54.167Z,54.67
2018-11-22T10:00:41.653Z,58.33
2018-11-22T10:18:19.859Z,51.47
2018-11-22T10:21:07.325Z,50.10
2018-11-22T10:24:01.410Z,50.87
2018-11-22T10:33:05.127Z,51.17
2018-11-22T10:41:33.099Z,55.13
2018-11-22T10:55:14.610Z,50.97
2018-11-22T10:58:02.302Z,49.30
2018-11-22T11:00:58.767Z,48.63
2018-11-22T11:03:55.147Z,44.83
2018-11-22T11:06:43.294Z,52.93
2018-11-22T11:09:30.853Z,47.77
2018-11-22T11:30:26.028Z,48.83
2018-11-22T11:38:48.506Z,48.40
2018-11-22T11:41:36.226Z,47.47
2018-11-22T11:50:11.655Z,44.93
2018-11-22T11:52:39.949Z,48.80
2018-11-22T11:55:27.528Z,44.90
2018-11-22T12:10:33.958Z,45.50
2018-11-22T12:13:12.458Z,42.77
2018-11-22T12:15:44.378Z,42.53
2018-11-22T12:18:36.636Z,41.37
2018-11-22T12:24:32.899Z,43.87
2018-11-22T12:27:26.329Z,47.83
2018-11-22T12:30:19.690Z,41.77
2018-11-22T12:33:01.242Z,48.70
2018-11-22T12:36:08.296Z,41.70
2018-11-22T12:39:01.525Z,43.70
2018-11-22T12:51:04.729Z,44.73
2018-11-22T12:53:57.887Z,48.23
2018-11-22T13:05:47.427Z,44.27
2018-11-22T13:11:13.985Z,41.17
2018-11-22T13:14:01.744Z,41.97
2018-11-22T13:16:30.110Z,39.60
2018-11-22T13:19:35.699Z,43.40
2018-11-22T13:22:23.716Z,49.67
2018-11-22T13:24:52.307Z,39.03
2018-11-22T13:27:20.798Z,46.27
2018-11-22T13:30:08.510Z,42.07
2018-11-22T13:33:01.340Z,40.87
2018-11-22T13:48:07.705Z,49.50
2018-11-22T13:51:01.027Z,45.10
2018-11-22T13:59:58.398Z,45.63
2018-11-22T14:02:25.097Z,47.17
2018-11-22T14:05:12.677Z,42.47
2018-11-22T14:08:00.285Z,46.83
2018-11-22T14:13:34.329Z,45.87
2018-11-22T14:16:21.875Z,46.17
2018-11-22T14:27:49.728Z,42.63
2018-11-22T14:30:37.257Z,43.53
2018-11-22T14:36:31.382Z,41.50
2018-11-22T14:54:43.566Z,43.60
2018-11-22T15:09:52.844Z,45.00
2018-11-22T15:21:54.568Z,49.73
2018-11-22T15:27:15.450Z,48.17
2018-11-22T15:39:11.178Z,47.10
2018-11-22T15:48:10.725Z,46.77
2018-11-22T15:57:17.807Z,46.20
2018-11-22T16:09:49.925Z,47.20
2018-11-22T16:12:18.273Z,46.80
2018-11-22T16:14:46.716Z,43.07
2018-11-22T16:17:15.440Z,49.93
2018-11-22T16:19:43.762Z,47.60
2018-11-22T16:22:12.237Z,47.80
2018-11-22T16:24:41.036Z,51.97
2018-11-22T16:27:09.355Z,47.47
2018-11-22T16:29:37.616Z,49.40
2018-11-22T16:32:06.001Z,45.87
2018-11-22T16:34:34.799Z,49.67
2018-11-22T16:37:03.410Z,46.63
2018-11-22T16:39:31.625Z,48.23
2018-11-22T16:41:59.789Z,46.07
2018-11-22T16:44:28.395Z,48.40
2018-11-22T16:46:57.091Z,55.27
2018-11-22T16:49:29.822Z,49.97
2018-11-22T16:51:58.337Z,46.77
2018-11-22T16:54:38.979Z,54.53
2018-11-22T16:57:11.629Z,43.03
2018-11-22T16:59:39.988Z,48.43
2018-11-22T17:02:09.129Z,47.07
2018-11-22T17:04:43.938Z,48.13
2018-11-22T17:07:12.777Z,47.33
2018-11-22T17:09:41.174Z,47.57
2018-11-22T17:12:09.496Z,47.80
2018-11-22T17:14:38.122Z,53.77
2018-11-22T17:17:06.730Z,58.43
2018-11-22T17:19:35.475Z,54.00
2018-11-22T17:22:03.728Z,51.43
2018-11-22T17:24:31.860Z,47.90
2018-11-22T17:27:00.429Z,44.27
2018-11-22T17:29:29.104Z,44.83
2018-11-22T17:31:57.952Z,47.10
2018-11-22T17:34:26.354Z,47.03
2018-11-22T17:36:54.773Z,50.37
2018-11-22T17:39:23.563Z,47.17
2018-11-22T17:41:51.918Z,50.30
2018-11-22T17:44:20.699Z,52.67
2018-11-22T17:46:48.924Z,44.17
2018-11-22T17:49:17.080Z,49.73
2018-11-22T17:51:45.432Z,46.53
2018-11-22T17:54:13.722Z,45.20
2018-11-22T17:56:42.104Z,43.63
2018-11-22T17:59:11.137Z,45.20
2018-11-22T18:01:39.491Z,45.90
2018-11-22T18:04:07.940Z,45.63
2018-11-22T18:06:36.594Z,44.67
2018-11-22T18:09:06.664Z,46.50
2018-11-22T18:11:35.404Z,47.63
2018-11-22T18:14:04.023Z,42.73
2018-11-22T18:16:32.675Z,46.00
2018-11-22T18:19:00.999Z,41.50
2018-11-22T18:21:29.667Z,43.93
2018-11-22T18:23:59.215Z,45.10
2018-11-22T18:26:27.603Z,42.03
2018-11-22T18:28:56.199Z,43.50
2018-11-22T18:31:24.311Z,40.57
2018-11-22T18:33:52.560Z,45.57
2018-11-22T18:36:21.086Z,43.83
2018-11-22T18:38:49.859Z,42.67
2018-11-22T18:41:18.472Z,45.43
2018-11-22T18:43:47.467Z,45.20
2018-11-22T18:46:16.163Z,44.57
2018-11-22T18:48:44.891Z,45.70
2018-11-22T18:51:14.958Z,44.00
2018-11-22T18:53:43.538Z,46.10
2018-11-22T18:56:12.268Z,48.60
2018-11-22T18:58:42.724Z,44.17
2018-11-22T19:01:11.355Z,40.63
2018-11-22T19:03:41.669Z,44.87
2018-11-22T19:06:11.448Z,42.77
2018-11-22T19:08:40.180Z,44.07
2018-11-22T19:11:09.238Z,42.47
2018-11-22T19:13:37.731Z,40.90
2018-11-22T19:16:07.273Z,42.97
2018-11-22T19:18:35.855Z,43.70
2018-11-22T19:21:04.338Z,40.27
2018-11-22T19:23:32.859Z,36.47
2018-11-22T19:26:02.085Z,41.97
2018-11-22T19:28:30.455Z,44.00
2018-11-22T19:30:59.069Z,43.40
2018-11-22T19:33:27.377Z,41.47
2018-11-22T19:35:56.367Z,42.30
2018-11-22T19:38:24.992Z,40.73
2018-11-22T19:40:53.762Z,38.87
2018-11-22T19:43:22.439Z,44.67
2018-11-22T19:45:50.821Z,42.33
2018-11-22T19:48:21.334Z,43.93
2018-11-22T19:50:50.699Z,38.80
2018-11-22T19:53:19.187Z,41.70
2018-11-22T19:55:47.512Z,39.23
2018-11-22T19:58:16.746Z,36.20
2018-11-22T20:00:45.081Z,39.47
2018-11-22T20:03:13.581Z,36.73
2018-11-22T20:05:42.518Z,39.53
2018-11-22T20:08:12.718Z,40.17
2018-11-22T20:10:42.817Z,38.20
2018-11-22T20:13:11.535Z,38.47
2018-11-22T20:15:40.155Z,38.37
2018-11-22T20:18:09.819Z,37.33
2018-11-22T20:20:38.462Z,36.07
2018-11-22T20:23:06.755Z,38.53
2018-11-22T20:25:35.430Z,37.90
2018-11-22T20:28:05.214Z,35.60
2018-11-22T20:30:35.341Z,38.00
2018-11-22T20:33:03.701Z,35.20
2018-11-22T20:35:32.522Z,35.17
2018-11-22T20:38:01.273Z,39.03
2018-11-22T20:40:29.784Z,38.53
2018-11-22T20:42:58.934Z,39.27
2018-11-22T20:45:28.528Z,41.60
2018-11-22T20:47:58.644Z,39.53
2018-11-22T20:50:27.630Z,36.43
2018-11-22T20:52:56.255Z,37.30
2018-11-22T20:55:26.542Z,36.03
2018-11-22T20:57:56.493Z,38.60
2018-11-22T21:00:26.888Z,37.77
2018-11-22T21:02:55.506Z,33.20
2018-11-22T21:05:25.637Z,39.10
2018-11-22T21:07:54.259Z,36.47
2018-11-22T21:10:24.185Z,40.87
2018-11-22T21:12:52.925Z,40.80
2018-11-22T21:15:24.109Z,34.53
2018-11-22T21:17:54.008Z,33.70
2018-11-22T21:20:24.386Z,33.83
2018-11-22T21:22:53.053Z,34.77
2018-11-22T21:25:22.131Z,34.37
2018-11-22T21:27:50.424Z,32.30
2018-11-22T21:30:21.541Z,36.10
2018-11-22T21:32:50.745Z,35.87
2018-11-22T21:35:19.570Z,34.23
2018-11-22T21:37:48.752Z,35.60
2018-11-22T21:40:17.621Z,41.10
2018-11-22T21:42:45.841Z,35.00
2018-11-22T21:45:15.342Z,33.90
2018-11-22T21:47:43.849Z,34.20
2018-11-22T21:50:12.883Z,37.27
2018-11-22T21:52:41.253Z,32.27
2018-11-22T21:55:11.849Z,33.07
2018-11-22T21:57:41.018Z,35.37
2018-11-22T22:00:26.228Z,33.37
2018-11-22T22:02:57.476Z,36.93
2018-11-22T22:05:25.907Z,34.73
2018-11-22T22:07:54.588Z,32.90
2018-11-22T22:10:22.912Z,35.70
2018-11-22T22:12:51.469Z,33.23
2018-11-22T22:15:21.416Z,33.40
2018-11-22T22:17:49.784Z,34.20
2018-11-22T22:20:35.197Z,34.80
2018-11-22T22:23:03.705Z,33.90
2018-11-22T22:25:32.371Z,32.93
2018-11-22T22:28:00.879Z,34.50
2018-11-22T22:30:31.758Z,34.87
2018-11-22T22:33:01.557Z,36.13
2018-11-22T22:35:29.742Z,30.23
2018-11-22T22:37:58.246Z,36.70
2018-11-22T22:40:27.737Z,31.27
2018-11-22T22:42:56.759Z,33.63
2018-11-22T22:45:26.511Z,34.60
2018-11-22T22:47:54.857Z,30.57
2018-11-22T22:50:24.236Z,32.73
2018-11-22T22:52:54.294Z,31.83
2018-11-22T22:55:22.835Z,33.90
2018-11-22T22:57:51.043Z,32.00
2018-11-22T23:00:25.776Z,33.07
2018-11-22T23:02:56.903Z,30.93
2018-11-22T23:05:26.079Z,29.77
2018-11-22T23:07:54.410Z,32.23
2018-11-22T23:10:23.658Z,33.27
2018-11-22T23:12:52.127Z,30.80
2018-11-22T23:15:20.875Z,34.30
2018-11-22T23:17:49.166Z,35.83
2018-11-22T23:20:20.135Z,31.90
2018-11-22T23:22:49.013Z,31.03
2018-11-22T23:25:18.427Z,28.57
2018-11-22T23:27:46.793Z,28.40
2018-11-22T23:30:18.649Z,33.07
2018-11-22T23:32:49.126Z,28.80
2018-11-22T23:35:17.882Z,35.53
2018-11-22T23:37:46.258Z,32.73
2018-11-22T23:40:15.920Z,30.00
2018-11-22T23:42:44.235Z,32.50
2018-11-22T23:45:13.714Z,34.70
2018-11-22T23:47:42.594Z,31.00
2018-11-22T23:50:13.285Z,30.73
2018-11-22T23:52:42.470Z,33.80
2018-11-22T23:55:10.652Z,35.47
2018-11-22T23:57:39.145Z,29.70
